createdAt,value
2022-12-25T00:01:10.274Z,37.89
2022-12-25T00:04:13.400Z,38.01
2022-12-25T00:07:16.466Z,37.91
2022-12-25T00:10:19.920Z,37.85
2022-12-25T00:13:22.918Z,38.12
2022-12-25T00:16:28.044Z,37.80
2022-12-25T00:19:31.192Z,38.30
2022-12-25T00:22:34.192Z,37.71
2022-12-25T00:25:40.659Z,37.93
2022-12-25T00:28:44.419Z,38.06
2022-12-25T00:31:48.816Z,38.10
2022-12-25T00:34:51.816Z,38.03
2022-12-25T00:37:54.822Z,37.84
2022-12-25T00:40:57.849Z,37.80
2022-12-25T00:44:00.839Z,37.98
2022-12-25T00:47:05.363Z,38.15
2022-12-25T00:50:09.632Z,37.98
2022-12-25T00:53:12.723Z,37.67
2022-12-25T00:56:15.733Z,37.94
2022-12-25T00:59:18.809Z,38.12
2022-12-25T01:02:26.475Z,37.52
2022-12-25T01:05:29.621Z,37.76
2022-12-25T01:08:35.797Z,38.04
2022-12-25T01:11:37.853Z,37.82
2022-12-25T01:14:40.823Z,37.74
2022-12-25T01:17:46.123Z,37.44
2022-12-25T01:20:49.483Z,37.82
2022-12-25T01:23:53.579Z,37.67
2022-12-25T01:26:56.565Z,37.76
2022-12-25T01:29:59.522Z,37.88
2022-12-25T01:33:03.941Z,37.42
2022-12-25T01:36:15.219Z,37.53
2022-12-25T01:39:18.298Z,37.67
2022-12-25T01:42:23.708Z,37.77
2022-12-25T01:45:47.725Z,37.72
2022-12-25T01:48:54.451Z,37.50
2022-12-25T01:52:00.116Z,37.32
2022-12-25T01:55:05.078Z,37.43
2022-12-25T01:58:08.118Z,37.32
2022-12-25T02:01:11.938Z,37.59
2022-12-25T02:04:22.563Z,37.77
2022-12-25T02:07:28.076Z,37.39
2022-12-25T02:10:31.477Z,37.46
2022-12-25T02:13:34.498Z,37.41
2022-12-25T02:16:57.879Z,37.63
2022-12-25T02:20:29.079Z,37.09
2022-12-25T02:24:11.039Z,37.28
2022-12-25T02:27:25.894Z,37.03
2022-12-25T02:30:35.644Z,37.40
2022-12-25T02:34:10.462Z,37.27
2022-12-25T02:37:17.862Z,37.24
2022-12-25T02:40:26.304Z,37.56
2022-12-25T02:43:50.328Z,37.24
2022-12-25T02:47:12.619Z,37.46
2022-12-25T02:50:35.118Z,36.99
2022-12-25T02:53:59.486Z,37.58
2022-12-25T02:57:25.391Z,37.23
2022-12-25T03:00:45.844Z,37.17
2022-12-25T03:04:10.891Z,37.30
2022-12-25T03:07:17.729Z,37.10
2022-12-25T03:10:39.171Z,37.14
2022-12-25T03:13:44.548Z,37.36
2022-12-25T03:16:50.999Z,36.73
2022-12-25T03:20:13.400Z,37.30
2022-12-25T03:23:39.923Z,37.30
2022-12-25T03:26:59.011Z,36.96
2022-12-25T03:30:20.300Z,37.00
2022-12-25T03:33:47.688Z,37.03
2022-12-25T03:37:09.986Z,36.80
2022-12-25T03:40:41.896Z,37.16
2022-12-25T03:44:12.876Z,37.13
2022-12-25T03:47:37.910Z,36.66
2022-12-25T03:51:03.720Z,37.14
2022-12-25T03:54:28.693Z,37.12
2022-12-25T03:57:52.515Z,36.94
2022-12-25T04:01:12.939Z,36.76
2022-12-25T04:04:33.391Z,36.82
2022-12-25T04:07:54.072Z,37.20
2022-12-25T04:11:16.200Z,36.80
2022-12-25T04:14:36.694Z,37.00
2022-12-25T04:17:57.151Z,36.48
2022-12-25T04:21:17.317Z,36.73
2022-12-25T04:24:40.051Z,36.53
2022-12-25T04:28:01.923Z,36.47
2022-12-25T04:31:22.436Z,36.95
2022-12-25T04:34:57.509Z,36.41
2022-12-25T04:38:00.549Z,36.42
2022-12-25T04:41:04.043Z,36.75
2022-12-25T04:44:08.481Z,36.78
2022-12-25T04:47:11.914Z,36.63
2022-12-25T04:50:15.128Z,36.30
2022-12-25T04:53:19.981Z,36.62
2022-12-25T04:56:23.350Z,36.39
2022-12-25T04:59:27.806Z,36.27
2022-12-25T05:02:30.941Z,36.62
2022-12-25T05:05:34.100Z,36.42
2022-12-25T05:08:37.542Z,36.70
2022-12-25T05:11:40.655Z,36.42
2022-12-25T05:14:45.150Z,36.56
2022-12-25T05:17:48.115Z,36.27
2022-12-25T05:20:54.672Z,36.28
2022-12-25T05:23:58.905Z,36.80
2022-12-25T05:27:01.946Z,36.47
2022-12-25T05:30:07.352Z,36.43
2022-12-25T05:33:10.382Z,36.64
2022-12-25T05:36:14.110Z,36.58
2022-12-25T05:39:17.125Z,36.73
2022-12-25T05:42:20.108Z,36.84
2022-12-25T05:45:24.563Z,36.73
2022-12-25T05:48:27.592Z,36.58
2022-12-25T05:51:30.924Z,36.36
2022-12-25T05:54:33.921Z,36.34
2022-12-25T05:57:36.959Z,36.55
2022-12-25T06:00:42.107Z,36.62
2022-12-25T06:03:45.252Z,36.31
2022-12-25T06:06:48.394Z,36.86
2022-12-25T06:09:51.489Z,36.27
2022-12-25T06:12:55.538Z,36.58
2022-12-25T06:16:00.295Z,36.46
2022-12-25T06:19:03.383Z,36.54
2022-12-25T06:22:06.391Z,36.33
2022-12-25T06:25:10.392Z,36.36
2022-12-25T06:28:13.679Z,35.99
2022-12-25T06:31:22.152Z,36.27
2022-12-25T06:34:25.172Z,36.17
2022-12-25T06:37:28.181Z,36.35
2022-12-25T06:40:31.129Z,36.31
2022-12-25T06:43:34.411Z,36.27
2022-12-25T06:46:38.831Z,36.24
2022-12-25T06:49:41.810Z,36.66
2022-12-25T06:52:44.876Z,36.46
2022-12-25T06:55:47.973Z,36.84
2022-12-25T06:58:53.045Z,36.46
2022-12-25T07:01:58.831Z,36.40
2022-12-25T07:05:02.931Z,35.28
2022-12-25T07:08:06.405Z,34.69
2022-12-25T07:11:09.998Z,34.27
2022-12-25T07:14:23.858Z,34.28
2022-12-25T07:17:28.861Z,33.61
2022-12-25T07:20:32.321Z,33.58
2022-12-25T07:23:36.771Z,33.82
2022-12-25T07:26:39.813Z,34.58
2022-12-25T07:29:42.780Z,34.64
2022-12-25T07:32:50.229Z,35.00
2022-12-25T07:35:53.573Z,35.67
2022-12-25T07:38:56.669Z,34.75
2022-12-25T07:41:59.711Z,35.14
2022-12-25T07:45:04.205Z,35.73
2022-12-25T07:48:15.327Z,35.49
2022-12-25T07:51:19.631Z,35.50
2022-12-25T07:54:22.670Z,35.60
2022-12-25T07:57:25.765Z,36.06
2022-12-25T08:00:32.725Z,35.43
2022-12-25T08:03:37.458Z,34.69
2022-12-25T08:06:40.601Z,34.54
2022-12-25T08:09:43.605Z,33.81
2022-12-25T08:12:46.742Z,33.62
2022-12-25T08:15:50.198Z,32.93
2022-12-25T08:18:55.133Z,32.85
2022-12-25T08:21:58.179Z,33.08
2022-12-25T08:25:01.560Z,33.60
2022-12-25T08:28:04.766Z,33.52
2022-12-25T08:31:09.887Z,33.69
2022-12-25T08:34:14.369Z,33.57
2022-12-25T08:37:17.396Z,33.64
2022-12-25T08:40:20.435Z,33.71
2022-12-25T08:43:23.519Z,33.78
2022-12-25T08:46:26.606Z,34.19
2022-12-25T08:49:31.084Z,34.46
2022-12-25T08:52:34.266Z,34.60
2022-12-25T08:55:37.277Z,34.49
2022-12-25T08:58:40.669Z,34.33
2022-12-25T09:01:43.818Z,34.20
2022-12-25T09:04:48.554Z,34.10
2022-12-25T09:07:51.547Z,33.97
2022-12-25T09:10:54.661Z,34.66
2022-12-25T09:13:57.709Z,34.31
2022-12-25T09:17:00.790Z,34.60
2022-12-25T09:20:06.243Z,33.96
2022-12-25T09:23:13.736Z,34.03
2022-12-25T09:26:18.823Z,34.31
2022-12-25T09:29:21.870Z,34.01
2022-12-25T09:32:24.890Z,34.29
2022-12-25T09:35:29.401Z,34.22
2022-12-25T09:38:33.004Z,33.76
2022-12-25T09:41:41.240Z,33.63
2022-12-25T09:44:47.264Z,33.65
2022-12-25T09:47:50.826Z,33.50
2022-12-25T09:51:01.214Z,33.49
2022-12-25T09:54:10.463Z,33.86
2022-12-25T09:57:14.808Z,33.57
2022-12-25T10:00:20.206Z,34.23
2022-12-25T10:03:39.719Z,34.30
2022-12-25T10:06:56.996Z,34.37
2022-12-25T10:10:13.349Z,34.12
2022-12-25T10:13:37.041Z,34.74
2022-12-25T10:16:52.654Z,34.99
2022-12-25T10:20:03.485Z,34.77
2022-12-25T10:23:17.303Z,34.80
2022-12-25T10:26:22.096Z,35.21
2022-12-25T10:29:25.222Z,34.98
2022-12-25T10:32:28.448Z,34.73
2022-12-25T10:35:33.055Z,35.12
2022-12-25T10:38:37.787Z,34.81
2022-12-25T10:42:01.264Z,34.83
2022-12-25T10:45:08.085Z,35.36
2022-12-25T10:48:21.328Z,35.54
2022-12-25T10:51:32.111Z,35.20
2022-12-25T10:54:37.312Z,34.84
2022-12-25T10:57:47.476Z,35.37
2022-12-25T11:00:55.267Z,34.95
2022-12-25T11:03:58.403Z,35.42
2022-12-25T11:07:07.053Z,35.11
2022-12-25T11:10:23.557Z,35.30
2022-12-25T11:13:29.195Z,34.96
2022-12-25T11:16:40.290Z,35.33
2022-12-25T11:19:53.829Z,34.73
2022-12-25T11:22:56.913Z,34.01
2022-12-25T11:26:03.535Z,33.42
2022-12-25T11:29:18.450Z,33.37
2022-12-25T11:32:27.355Z,33.44
2022-12-25T11:35:46.786Z,33.38
2022-12-25T11:38:49.785Z,33.48
2022-12-25T11:41:59.477Z,33.64
2022-12-25T11:45:07.004Z,34.29
2022-12-25T11:48:15.428Z,34.48
2022-12-25T11:51:19.985Z,34.67
2022-12-25T11:54:29.099Z,34.62
2022-12-25T11:57:36.003Z,34.72
2022-12-25T12:00:39.491Z,34.54
2022-12-25T12:03:43.764Z,34.54
2022-12-25T12:06:51.510Z,35.25
2022-12-25T12:10:04.028Z,34.79
2022-12-25T12:13:27.190Z,35.13
2022-12-25T12:16:30.819Z,34.96
2022-12-25T12:19:34.843Z,35.67
2022-12-25T12:22:37.968Z,35.50
2022-12-25T12:25:42.312Z,36.04
2022-12-25T12:28:49.619Z,35.63
2022-12-25T12:31:53.952Z,35.87
2022-12-25T12:34:58.214Z,36.17
2022-12-25T12:38:05.544Z,36.01
2022-12-25T12:41:09.669Z,36.78
2022-12-25T12:44:16.999Z,36.46
2022-12-25T12:47:39.143Z,36.88
2022-12-25T12:50:43.786Z,36.72
2022-12-25T12:53:46.771Z,36.59
2022-12-25T12:57:00.846Z,37.12
2022-12-25T13:00:10.784Z,37.55
2022-12-25T13:03:32.234Z,37.33
2022-12-25T13:06:42.039Z,37.77
2022-12-25T13:10:01.025Z,38.19
2022-12-25T13:13:08.161Z,38.37
2022-12-25T13:16:23.757Z,38.11
2022-12-25T13:19:29.599Z,37.97
2022-12-25T13:22:34.862Z,37.98
2022-12-25T13:25:37.922Z,38.33
2022-12-25T13:28:41.073Z,38.52
2022-12-25T13:31:45.552Z,37.35
2022-12-25T13:34:49.334Z,37.41
2022-12-25T13:37:52.717Z,37.35
2022-12-25T13:41:23.539Z,37.48
2022-12-25T13:44:28.707Z,37.36
2022-12-25T13:47:34.820Z,38.06
2022-12-25T13:50:38.436Z,37.70
2022-12-25T13:53:41.474Z,37.83
2022-12-25T13:56:49.597Z,38.36
2022-12-25T13:59:53.138Z,37.99
2022-12-25T14:02:58.207Z,38.42
2022-12-25T14:06:02.649Z,38.21
2022-12-25T14:09:06.006Z,38.34
2022-12-25T14:12:14.177Z,38.35
2022-12-25T14:15:23.526Z,38.36
2022-12-25T14:18:29.030Z,38.10
2022-12-25T14:21:34.297Z,38.33
2022-12-25T14:24:37.801Z,38.03
2022-12-25T14:27:41.295Z,38.60
2022-12-25T14:30:44.563Z,38.55
2022-12-25T14:33:49.896Z,38.59
2022-12-25T14:36:53.783Z,38.95
2022-12-25T14:40:00.002Z,39.02
2022-12-25T14:43:05.757Z,38.56
2022-12-25T14:46:09.141Z,38.95
2022-12-25T14:49:25.447Z,38.92
2022-12-25T14:52:31.365Z,38.88
2022-12-25T14:55:34.463Z,38.93
2022-12-25T14:58:43.146Z,39.25
2022-12-25T15:01:52.175Z,39.10
2022-12-25T15:04:56.702Z,39.16
2022-12-25T15:08:18.991Z,38.94
2022-12-25T15:11:22.039Z,39.08
2022-12-25T15:14:25.559Z,36.03
2022-12-25T15:17:31.418Z,35.64
2022-12-25T15:20:36.497Z,35.91
2022-12-25T15:23:39.512Z,35.58
2022-12-25T15:26:42.607Z,35.71
2022-12-25T15:30:09.273Z,35.97
2022-12-25T15:33:13.901Z,35.88
2022-12-25T15:36:18.324Z,36.96
2022-12-25T15:39:21.335Z,37.64
2022-12-25T15:42:25.909Z,37.22
2022-12-25T15:45:30.506Z,37.69
2022-12-25T15:48:33.621Z,38.02
2022-12-25T15:51:38.233Z,38.00
2022-12-25T15:54:41.264Z,37.66
2022-12-25T15:57:47.219Z,37.56
2022-12-25T16:00:51.544Z,37.54
2022-12-25T16:03:54.721Z,37.28
2022-12-25T16:07:00.678Z,37.00
2022-12-25T16:10:03.706Z,36.88
2022-12-25T16:13:06.843Z,37.22
2022-12-25T16:16:09.980Z,37.00
2022-12-25T16:19:13.089Z,37.21
2022-12-25T16:22:21.572Z,37.03
2022-12-25T16:25:25.116Z,36.53
2022-12-25T16:28:28.108Z,36.61
2022-12-25T16:31:31.102Z,36.91
2022-12-25T16:34:34.177Z,37.22
2022-12-25T16:37:40.470Z,37.19
2022-12-25T16:40:44.538Z,36.93
2022-12-25T16:43:48.019Z,36.76
2022-12-25T16:46:51.077Z,37.38
2022-12-25T16:49:54.240Z,37.38
2022-12-25T16:52:58.770Z,37.09
2022-12-25T16:56:07.039Z,37.29
2022-12-25T16:59:10.104Z,37.34
2022-12-25T17:02:16.708Z,37.73
2022-12-25T17:05:19.875Z,37.74
2022-12-25T17:08:24.315Z,37.51
2022-12-25T17:11:30.380Z,37.90
2022-12-25T17:14:34.299Z,37.56
2022-12-25T17:17:37.311Z,37.82
2022-12-25T17:20:40.454Z,37.70
2022-12-25T17:23:45.229Z,37.75
2022-12-25T17:26:48.894Z,37.52
2022-12-25T17:29:51.879Z,37.51
2022-12-25T17:32:55.292Z,37.46
2022-12-25T17:36:04.069Z,37.53
2022-12-25T17:39:08.690Z,37.38
2022-12-25T17:42:11.760Z,37.18
2022-12-25T17:45:15.061Z,37.59
2022-12-25T17:48:18.207Z,37.32
2022-12-25T17:51:23.480Z,37.08
2022-12-25T17:54:28.078Z,37.56
2022-12-25T17:57:31.154Z,37.40
2022-12-25T18:00:34.175Z,37.74
2022-12-25T18:03:37.915Z,37.73
2022-12-25T18:06:41.373Z,36.27
2022-12-25T18:09:45.747Z,35.29
2022-12-25T18:12:48.852Z,35.48
2022-12-25T18:15:52.148Z,35.94
2022-12-25T18:18:55.568Z,35.85
2022-12-25T18:21:58.530Z,35.68
2022-12-25T18:25:02.882Z,36.02
2022-12-25T18:28:06.153Z,35.77
2022-12-25T18:31:09.956Z,36.29
2022-12-25T18:34:12.958Z,36.34
2022-12-25T18:37:15.890Z,36.33
2022-12-25T18:40:20.302Z,36.68
2022-12-25T18:43:53.619Z,36.48
2022-12-25T18:46:46.601Z,36.93
2022-12-25T18:49:49.754Z,36.69
2022-12-25T18:52:52.804Z,36.58
2022-12-25T18:55:58.569Z,36.58
2022-12-25T18:59:01.753Z,36.42
2022-12-25T19:02:04.809Z,36.72
2022-12-25T19:05:08.379Z,36.49
2022-12-25T19:08:11.615Z,36.74
2022-12-25T19:11:16.681Z,36.81
2022-12-25T19:14:19.676Z,36.88
2022-12-25T19:17:29.615Z,36.64
2022-12-25T19:20:35.731Z,36.55
2022-12-25T19:23:39.052Z,36.67
2022-12-25T19:26:43.900Z,36.60
2022-12-25T19:29:46.922Z,36.42
2022-12-25T19:32:50.233Z,36.47
2022-12-25T19:35:53.210Z,36.53
2022-12-25T19:38:56.251Z,36.50
2022-12-25T19:42:00.654Z,36.50
2022-12-25T19:45:03.723Z,36.98
2022-12-25T19:48:07.260Z,37.02
2022-12-25T19:51:17.232Z,36.97
2022-12-25T19:54:22.879Z,37.03
2022-12-25T19:57:27.407Z,37.31
2022-12-25T20:00:30.379Z,36.78
2022-12-25T20:03:33.614Z,36.67
2022-12-25T20:06:39.323Z,36.76
2022-12-25T20:09:42.285Z,36.92
2022-12-25T20:12:46.688Z,36.81
2022-12-25T20:15:49.957Z,36.71
2022-12-25T20:18:53.339Z,36.91
2022-12-25T20:21:56.495Z,37.20
2022-12-25T20:24:59.984Z,36.76
2022-12-25T20:28:04.592Z,36.79
2022-12-25T20:31:09.056Z,36.79
2022-12-25T20:34:12.699Z,37.11
2022-12-25T20:37:15.711Z,37.19
2022-12-25T20:40:19.083Z,37.01
2022-12-25T20:43:23.493Z,36.48
2022-12-25T20:46:27.551Z,37.01
2022-12-25T20:49:32.602Z,36.64
2022-12-25T20:52:35.869Z,36.97
2022-12-25T20:55:38.959Z,36.58
2022-12-25T20:58:43.831Z,36.95
2022-12-25T21:01:47.921Z,36.54
2022-12-25T21:04:54.252Z,36.96
2022-12-25T21:07:57.411Z,36.41
2022-12-25T21:11:02.007Z,36.08
2022-12-25T21:14:06.616Z,36.04
2022-12-25T21:17:09.741Z,36.35
2022-12-25T21:20:13.227Z,36.30
2022-12-25T21:23:17.052Z,36.42
2022-12-25T21:26:22.422Z,36.05
2022-12-25T21:29:26.853Z,35.68
2022-12-25T21:32:46.954Z,36.06
2022-12-25T21:35:50.093Z,35.91
2022-12-25T21:38:56.092Z,36.00
2022-12-25T21:41:59.614Z,35.58
2022-12-25T21:45:04.073Z,35.60
2022-12-25T21:48:07.395Z,35.36
2022-12-25T21:51:31.906Z,35.37
2022-12-25T21:54:35.475Z,35.30
2022-12-25T21:57:38.601Z,35.43
2022-12-25T22:00:43.066Z,35.52
2022-12-25T22:03:46.353Z,35.38
2022-12-25T22:07:07.008Z,35.22
2022-12-25T22:10:10.335Z,35.04
2022-12-25T22:13:27.321Z,35.25
2022-12-25T22:16:49.338Z,35.15
2022-12-25T22:19:52.488Z,35.09
2022-12-25T22:22:55.742Z,35.10
2022-12-25T22:25:58.806Z,35.09
2022-12-25T22:29:02.017Z,35.38
2022-12-25T22:32:07.019Z,34.91
2022-12-25T22:35:12.345Z,34.83
2022-12-25T22:38:15.574Z,35.03
2022-12-25T22:41:18.549Z,35.00
2022-12-25T22:44:21.650Z,35.01
2022-12-25T22:47:26.013Z,34.57
2022-12-25T22:50:29.523Z,34.76
2022-12-25T22:53:32.502Z,34.75
2022-12-25T22:56:35.702Z,34.59
2022-12-25T22:59:38.783Z,34.61
2022-12-25T23:02:43.248Z,34.54
2022-12-25T23:05:46.489Z,34.81
2022-12-25T23:08:49.709Z,34.49
2022-12-25T23:11:52.757Z,34.58
2022-12-25T23:14:54.916Z,34.39
2022-12-25T23:18:16.978Z,34.37
2022-12-25T23:21:37.666Z,34.72
2022-12-25T23:24:58.036Z,34.69
2022-12-25T23:28:00.988Z,34.46
2022-12-25T23:31:03.096Z,34.60
2022-12-25T23:34:08.554Z,34.74
2022-12-25T23:37:12.545Z,34.81
2022-12-25T23:40:15.942Z,34.26
2022-12-25T23:43:18.968Z,34.26
2022-12-25T23:46:22.187Z,34.31
2022-12-25T23:49:26.959Z,34.49
2022-12-25T23:52:30.010Z,34.36
2022-12-25T23:55:34.741Z,34.32
2022-12-25T23:58:37.771Z,34.14
